Nf67 Femarnbaelt II — OU3102 — position and weather

sailwx.info

Track history (hours):
 
Tides and Currents Weather Stations Pressure Air Temp Water Temp Dewpoint Dewpoint Depression Visibility Wind Speed Wind Dir Waves Ship Positions

Nf67 Femarnbaelt II

Last reported at 2014-Jul-28 22:28 UTC. Time now 2014-Jul-29 19:01 UTC.
Position N 57°53' E 009°47'.

Length 15 m.

Type: Fishing. MMSI: 219012459.

Date/timePositionNaut miles runAvg speedWind from/ knotsBaromVisibWave heightAir tempDewpointWater temp
2014-Jul-28 22:28N 57°53' E 009°47'1 1.3
2014-Jul-28 21:33N 57°54' E 009°49'19 1.6
2014-Jul-28 09:31N 57°36' E 009°57'0 0.0
2014-Jul-28 08:28N 57°36' E 009°57'0 0.0
2014-Jul-26 06:13N 57°36' E 009°57'4 0.1
2014-Jul-24 06:23N 57°39' E 009°54'5 6.3
2014-Jul-24 05:33N 57°44' E 009°50'8 6.4
2014-Jul-24 04:21N 57°50' E 009°42'12 0.2
2014-Jul-22 05:26N 57°39' E 009°41'2 2.6
2014-Jul-22 04:31N 57°40' E 009°45'4 3.8
2014-Jul-22 03:31N 57°38' E 009°52'4 4.2
2014-Jul-22 02:33N 57°36' E 009°58'0 0.0
2014-Jul-22 01:33N 57°36' E 009°58'  
Track history (hours):
 
Tides and Currents Weather Stations Pressure Air Temp Water Temp Dewpoint Dewpoint Depression Visibility Wind Speed Wind Dir Waves Ship Positions

Nf67 Femarnbaelt II

Last reported at 2014-Jul-28 22:28 UTC. Time now 2014-Jul-29 19:01 UTC.
Position N 57°53' E 009°47'.

Length 15 m.

Type: Fishing. MMSI: 219012459.

Date/timePositionNaut miles runAvg speedWind from/ knotsBaromVisibWave heightAir tempDewpointWater temp
2014-Jul-28 22:28N 57°53' E 009°47'1 1.3
2014-Jul-28 21:33N 57°54' E 009°49'19 1.6
2014-Jul-28 09:31N 57°36' E 009°57'0 0.0
2014-Jul-28 08:28N 57°36' E 009°57'0 0.0
2014-Jul-26 06:13N 57°36' E 009°57'4 0.1
2014-Jul-24 06:23N 57°39' E 009°54'5 6.3
2014-Jul-24 05:33N 57°44' E 009°50'8 6.4
2014-Jul-24 04:21N 57°50' E 009°42'12 0.2
2014-Jul-22 05:26N 57°39' E 009°41'2 2.6
2014-Jul-22 04:31N 57°40' E 009°45'4 3.8
2014-Jul-22 03:31N 57°38' E 009°52'4 4.2
2014-Jul-22 02:33N 57°36' E 009°58'0 0.0
2014-Jul-22 01:33N 57°36' E 009°58'  

Dump ship's entire track history